Time;durP1;ratioP1;P1;durP2;ratioP2;P2;SDS_P1;SDS_P2;PMS_P1;PMS_P2;Temp;Humidity;BMP_temperature;BMP_pressure;BME280_temperature;BME280_humidity;BME280_pressure;Samples;Min_cycle;Max_cycle;Signal;HPM_P1;HPM_P2
2022/12/22 03:27:39;;;;;;;10.90;3.53;;;;;;;;;;5073651;28;20055;-62
2022/12/22 03:30:09;;;;;;;8.95;3.22;;;;;;;;;;5092503;28;20067;-63
2022/12/22 03:32:38;;;;;;;10.70;3.10;;;;;;;;;;5090348;28;20518;-63
2022/12/22 03:35:09;;;;;;;11.05;2.97;;;;;;;;;;5049610;28;20131;-63
2022/12/22 03:37:38;;;;;;;8.95;3.03;;;;;;;;;;5050023;28;20513;-62
2022/12/22 03:40:09;;;;;;;12.70;3.20;;;;;;;;;;5016885;28;20072;-63
2022/12/22 03:48:15;;;;;;;7.45;3.30;;;;;;;;;;5033178;28;20150;-63
2022/12/22 03:50:45;;;;;;;10.30;3.97;;;;;;;;;;5016719;28;20057;-63
2022/12/22 03:53:15;;;;;;;12.43;3.88;;;;;;;;;;5049937;28;20139;-63
2022/12/22 03:55:45;;;;;;;8.82;3.75;;;;;;;;;;5032668;28;20064;-63
2022/12/22 03:58:14;;;;;;;5.72;1.92;;;;;;;;;;5049777;28;20057;-64
2022/12/22 04:00:44;;;;;;;5.25;2.08;;;;;;;;;;5016342;28;20049;-64
2022/12/22 04:03:14;;;;;;;7.47;2.20;;;;;;;;;;5049707;28;20075;-63
2022/12/22 04:05:44;;;;;;;7.05;1.77;;;;;;;;;;5055754;28;20056;-63
2022/12/22 04:08:15;;;;;;;4.53;1.95;;;;;;;;;;5069717;28;20048;-63
2022/12/22 04:13:32;;;;;;;4.90;0.93;;;;;;;;;;5088028;28;20471;-63
2022/12/22 04:16:02;;;;;;;3.72;1.00;;;;;;;;;;5091800;28;20044;-63
2022/12/22 04:18:32;;;;;;;1.52;0.60;;;;;;;;;;5092448;28;20036;-63
2022/12/22 04:21:02;;;;;;;3.08;0.85;;;;;;;;;;5092232;28;20479;-63
2022/12/22 04:23:31;;;;;;;2.80;0.90;;;;;;;;;;5092092;28;20499;-63
2022/12/22 04:26:01;;;;;;;3.42;0.70;;;;;;;;;;5056278;28;20052;-63
2022/12/22 04:28:30;;;;;;;2.72;0.63;;;;;;;;;;5092237;28;20056;-63
2022/12/22 04:31:01;;;;;;;4.28;0.82;;;;;;;;;;5055627;28;20052;-64
2022/12/22 04:33:31;;;;;;;2.13;0.60;;;;;;;;;;5056054;28;20044;-63
2022/12/22 04:36:01;;;;;;;2.28;0.70;;;;;;;;;;5089729;28;20806;-63
2022/12/22 04:38:31;;;;;;;4.38;0.82;;;;;;;;;;5089613;28;20062;-63
2022/12/22 04:41:00;;;;;;;3.92;0.77;;;;;;;;;;5072522;28;20051;-64
2022/12/22 04:43:30;;;;;;;1.20;1.05;;;;;;;;;;5055917;28;20056;-63
2022/12/22 04:46:00;;;;;;;2.45;0.65;;;;;;;;;;5072354;28;20099;-63
2022/12/22 04:48:30;;;;;;;4.50;1.00;;;;;;;;;;5093311;28;20056;-63
2022/12/22 04:51:01;;;;;;;2.60;0.55;;;;;;;;;;5093316;28;20051;-63
2022/12/22 04:53:32;;;;;;;2.28;0.52;;;;;;;;;;5093329;28;20067;-63
2022/12/22 04:56:05;;;;;;;1.90;0.55;;;;;;;;;;5076224;28;20523;-64
2022/12/22 04:58:35;;;;;;;3.17;0.70;;;;;;;;;;5044088;28;20149;-63
2022/12/22 05:01:13;;;;;;;1.25;0.60;;;;;;;;;;5059695;28;20052;-63
2022/12/22 05:03:43;;;;;;;1.63;0.60;;;;;;;;;;5093080;28;20071;-63
2022/12/22 05:06:15;;;;;;;1.83;0.60;;;;;;;;;;5093124;28;20055;-63
2022/12/22 05:08:45;;;;;;;7.88;0.70;;;;;;;;;;5013065;28;20404;-64
2022/12/22 05:11:15;;;;;;;1.58;0.70;;;;;;;;;;5069528;28;20056;-64
2022/12/22 05:13:45;;;;;;;1.23;0.40;;;;;;;;;;5052747;28;20057;-64
2022/12/22 05:16:16;;;;;;;2.00;0.75;;;;;;;;;;5052766;28;20075;-64
2022/12/22 05:18:46;;;;;;;2.00;0.70;;;;;;;;;;5052865;28;20053;-64
2022/12/22 05:21:19;;;;;;;2.67;0.68;;;;;;;;;;4999606;28;20050;-64
2022/12/22 05:23:50;;;;;;;4.03;0.60;;;;;;;;;;5032607;28;20065;-64
2022/12/22 05:26:20;;;;;;;1.63;0.70;;;;;;;;;;5032236;28;20053;-63
2022/12/22 05:28:50;;;;;;;2.58;0.65;;;;;;;;;;5044257;28;20052;-64
2022/12/22 05:31:22;;;;;;;3.63;0.80;;;;;;;;;;5052506;28;20044;-64
2022/12/22 05:33:53;;;;;;;6.30;0.80;;;;;;;;;;5018854;28;20045;-64
2022/12/22 05:36:22;;;;;;;2.08;0.65;;;;;;;;;;5019105;28;20060;-64
2022/12/22 05:38:52;;;;;;;4.28;0.70;;;;;;;;;;5052179;28;20056;-64
2022/12/22 05:41:22;;;;;;;2.10;0.70;;;;;;;;;;5052147;28;20060;-64
2022/12/22 05:43:51;;;;;;;1.13;0.60;;;;;;;;;;4992707;28;20062;-64
2022/12/22 05:46:22;;;;;;;4.70;0.60;;;;;;;;;;4957013;28;20049;-64
2022/12/22 05:48:52;;;;;;;3.33;0.82;;;;;;;;;;5016236;28;20061;-64
2022/12/22 05:51:23;;;;;;;1.45;0.73;;;;;;;;;;5032337;28;20049;-64
2022/12/22 05:53:53;;;;;;;4.30;0.65;;;;;;;;;;5032004;28;20076;-64
2022/12/22 05:56:23;;;;;;;2.45;0.70;;;;;;;;;;5032204;28;20072;-64
2022/12/22 05:58:53;;;;;;;3.40;0.63;;;;;;;;;;5025456;28;20068;-64
2022/12/22 06:01:22;;;;;;;2.80;0.65;;;;;;;;;;5002055;28;20057;-64
2022/12/22 06:03:52;;;;;;;1.17;0.60;;;;;;;;;;5019174;28;20063;-64
2022/12/22 06:06:28;;;;;;;2.03;0.60;;;;;;;;;;5051793;28;20045;-64
2022/12/22 06:08:57;;;;;;;1.17;0.63;;;;;;;;;;5018186;28;20049;-64
2022/12/22 06:11:27;;;;;;;1.88;0.73;;;;;;;;;;5002544;28;20548;-64
2022/12/22 06:13:56;;;;;;;2.45;1.00;;;;;;;;;;5051606;28;20057;-64
2022/12/22 06:16:26;;;;;;;2.63;0.70;;;;;;;;;;5001926;28;20068;-64
2022/12/22 06:18:56;;;;;;;4.80;0.90;;;;;;;;;;5018473;28;20083;-64
2022/12/22 06:21:26;;;;;;;2.40;0.60;;;;;;;;;;5071626;28;20064;-64
2022/12/22 06:23:55;;;;;;;2.90;0.70;;;;;;;;;;5094022;28;20059;-64
2022/12/22 06:26:24;;;;;;;5.15;0.93;;;;;;;;;;5094117;28;20040;-62
2022/12/22 06:28:54;;;;;;;5.50;0.70;;;;;;;;;;5093764;28;20055;-64
2022/12/22 06:31:24;;;;;;;4.43;1.00;;;;;;;;;;5093696;28;20396;-64
2022/12/22 06:33:54;;;;;;;3.08;0.73;;;;;;;;;;5075148;28;20066;-64
2022/12/22 06:36:23;;;;;;;2.97;0.68;;;;;;;;;;5093858;28;20040;-64
2022/12/22 06:38:54;;;;;;;2.30;0.88;;;;;;;;;;5093387;28;20484;-64
2022/12/22 06:44:11;;;;;;;3.83;1.00;;;;;;;;;;5091361;28;20392;-64
2022/12/22 06:46:41;;;;;;;2.20;1.05;;;;;;;;;;5093788;28;20055;-63
2022/12/22 06:49:11;;;;;;;3.97;0.60;;;;;;;;;;5093448;28;20040;-63
2022/12/22 06:51:41;;;;;;;1.92;0.63;;;;;;;;;;5093367;28;20040;-64
2022/12/22 06:54:10;;;;;;;1.42;0.70;;;;;;;;;;5074211;28;20048;-64
2022/12/22 06:56:40;;;;;;;2.25;0.70;;;;;;;;;;5091399;28;20044;-64
2022/12/22 06:59:10;;;;;;;3.67;0.90;;;;;;;;;;5074428;28;20055;-64
2022/12/22 07:01:41;;;;;;;1.98;0.65;;;;;;;;;;5070648;28;20055;-64
2022/12/22 07:04:15;;;;;;;3.42;0.70;;;;;;;;;;5070395;28;20056;-64
2022/12/22 07:06:46;;;;;;;3.25;1.00;;;;;;;;;;5036850;28;20495;-64
2022/12/22 07:09:16;;;;;;;3.03;0.80;;;;;;;;;;5036851;28;20053;-64
2022/12/22 07:11:46;;;;;;;2.72;0.73;;;;;;;;;;5037376;28;20056;-64
2022/12/22 07:14:16;;;;;;;4.78;0.90;;;;;;;;;;5070578;28;20738;-64
2022/12/22 07:16:46;;;;;;;2.97;0.70;;;;;;;;;;5054204;28;20056;-64
2022/12/22 07:19:16;;;;;;;2.55;0.70;;;;;;;;;;5070285;28;20071;-64
2022/12/22 07:21:49;;;;;;;3.10;0.70;;;;;;;;;;5070061;28;20555;-64
2022/12/22 07:24:24;;;;;;;7.13;0.82;;;;;;;;;;5053507;28;20060;-64
2022/12/22 07:26:54;;;;;;;3.03;0.80;;;;;;;;;;5069966;28;20056;-64
2022/12/22 07:29:24;;;;;;;1.88;0.82;;;;;;;;;;5070190;28;20079;-64
2022/12/22 07:31:53;;;;;;;2.88;0.73;;;;;;;;;;5070136;28;20063;-64
2022/12/22 07:34:23;;;;;;;5.03;0.77;;;;;;;;;;5070034;28;20480;-64
2022/12/22 07:36:53;;;;;;;2.05;0.50;;;;;;;;;;5070208;28;20057;-65
2022/12/22 07:39:22;;;;;;;1.40;0.57;;;;;;;;;;5082121;28;20048;-64
2022/12/22 07:44:40;;;;;;;4.95;0.80;;;;;;;;;;5092636;28;20043;-64
2022/12/22 07:47:10;;;;;;;2.55;0.80;;;;;;;;;;5056263;28;20428;-64
2022/12/22 07:52:28;;;;;;;2.30;0.95;;;;;;;;;;5090205;28;20403;-64
2022/12/22 07:54:58;;;;;;;3.65;1.35;;;;;;;;;;5073164;28;20411;-64
2022/12/22 07:57:28;;;;;;;2.90;0.70;;;;;;;;;;5056326;28;20055;-64
2022/12/22 07:59:57;;;;;;;3.88;0.68;;;;;;;;;;5089899;28;20068;-64
2022/12/22 08:02:27;;;;;;;4.47;0.75;;;;;;;;;;5072733;28;20067;-64
2022/12/22 08:05:08;;;;;;;1.23;0.60;;;;;;;;;;5089996;28;20056;-64
2022/12/22 08:07:37;;;;;;;2.67;0.80;;;;;;;;;;5089898;28;20392;-64
2022/12/22 08:10:09;;;;;;;6.25;0.82;;;;;;;;;;5056259;28;20451;-64
2022/12/22 08:12:39;;;;;;;1.67;0.80;;;;;;;;;;5090031;28;20083;-64
2022/12/22 08:15:10;;;;;;;4.75;1.10;;;;;;;;;;5089497;28;20048;-64
2022/12/22 08:17:40;;;;;;;2.03;0.80;;;;;;;;;;5089642;28;20059;-64
2022/12/22 08:20:09;;;;;;;3.17;0.70;;;;;;;;;;5089773;28;20056;-64
2022/12/22 08:22:39;;;;;;;1.92;0.77;;;;;;;;;;5052110;28;20135;-64
2022/12/22 08:25:09;;;;;;;2.15;0.73;;;;;;;;;;5036633;28;20060;-64
2022/12/22 08:27:48;;;;;;;20.08;1.25;;;;;;;;;;5053464;28;20053;-64
2022/12/22 08:30:18;;;;;;;8.25;0.77;;;;;;;;;;5053520;28;20065;-64
2022/12/22 08:32:49;;;;;;;1.42;0.70;;;;;;;;;;5004186;28;20053;-64
2022/12/22 08:35:20;;;;;;;4.78;0.77;;;;;;;;;;5053503;28;20063;-64
2022/12/22 08:37:50;;;;;;;3.13;0.85;;;;;;;;;;5004251;28;20049;-64
2022/12/22 08:40:24;;;;;;;11.10;1.08;;;;;;;;;;5036501;28;20500;-64
2022/12/22 08:42:59;;;;;;;2.20;0.80;;;;;;;;;;5053462;28;20045;-64
2022/12/22 08:45:29;;;;;;;3.33;0.75;;;;;;;;;;5053353;28;20061;-64
2022/12/22 08:47:59;;;;;;;11.45;0.82;;;;;;;;;;5020028;28;20057;-64
2022/12/22 08:50:28;;;;;;;4.63;0.80;;;;;;;;;;5036429;28;20480;-64
2022/12/22 08:53:05;;;;;;;3.33;0.70;;;;;;;;;;5053146;28;20065;-65
2022/12/22 08:55:55;;;;;;;1.50;0.80;;;;;;;;;;5053210;28;20048;-64
2022/12/22 08:58:25;;;;;;;3.95;0.77;;;;;;;;;;5053285;28;20618;-64
2022/12/22 09:00:56;;;;;;;5.97;1.08;;;;;;;;;;5046098;28;20558;-65
2022/12/22 09:03:26;;;;;;;4.82;0.70;;;;;;;;;;5076594;28;20063;-65
2022/12/22 09:06:02;;;;;;;4.75;1.00;;;;;;;;;;5094753;28;20491;-65
2022/12/22 09:08:32;;;;;;;4.53;1.00;;;;;;;;;;5059856;28;20048;-65
2022/12/22 09:11:03;;;;;;;5.57;0.80;;;;;;;;;;5095458;28;20040;-64
2022/12/22 09:13:33;;;;;;;3.30;0.82;;;;;;;;;;5059750;28;20052;-65
2022/12/22 09:16:07;;;;;;;9.07;1.00;;;;;;;;;;5095115;28;20040;-65
2022/12/22 09:18:37;;;;;;;3.95;1.13;;;;;;;;;;5076301;28;20055;-65
2022/12/22 09:21:07;;;;;;;6.85;1.90;;;;;;;;;;5059207;28;20063;-65
2022/12/22 09:23:36;;;;;;;6.10;1.52;;;;;;;;;;5093278;28;20056;-65
2022/12/22 09:26:07;;;;;;;6.63;1.25;;;;;;;;;;5076107;28;20063;-65
2022/12/22 09:28:38;;;;;;;3.88;1.20;;;;;;;;;;5076158;28;20059;-65
2022/12/22 09:31:16;;;;;;;2.95;0.82;;;;;;;;;;5075880;28;20495;-65
2022/12/22 09:33:46;;;;;;;3.70;1.20;;;;;;;;;;5075747;28;20507;-65
2022/12/22 09:36:29;;;;;;;5.32;1.30;;;;;;;;;;5076047;28;20048;-65
2022/12/22 09:39:04;;;;;;;3.75;1.35;;;;;;;;;;5094837;28;20044;-65
2022/12/22 09:41:42;;;;;;;4.10;1.13;;;;;;;;;;5076430;28;20056;-66
2022/12/22 09:44:34;;;;;;;2.60;1.00;;;;;;;;;;5076120;28;20056;-65
2022/12/22 09:47:34;;;;;;;3.63;1.00;;;;;;;;;;5094843;28;20044;-65
2022/12/22 09:50:07;;;;;;;3.85;1.00;;;;;;;;;;5032181;28;20094;-65
2022/12/22 09:52:37;;;;;;;3.10;1.23;;;;;;;;;;4999117;28;20057;-66
2022/12/22 09:55:25;;;;;;;2.72;0.82;;;;;;;;;;4999277;28;20049;-66
2022/12/22 09:57:55;;;;;;;3.80;0.77;;;;;;;;;;5031970;28;20057;-66
2022/12/22 10:00:26;;;;;;;3.13;0.98;;;;;;;;;;5031954;28;20061;-65
2022/12/22 10:03:25;;;;;;;2.75;0.50;;;;;;;;;;5031988;28;20056;-66
2022/12/22 10:06:25;;;;;;;2.28;0.60;;;;;;;;;;4973051;28;20058;-66
2022/12/22 10:08:56;;;;;;;4.65;0.90;;;;;;;;;;4940697;28;20055;-66
2022/12/22 10:11:25;;;;;;;2.28;0.55;;;;;;;;;;4972907;28;20055;-66
2022/12/22 10:13:55;;;;;;;2.25;0.65;;;;;;;;;;4940766;28;20086;-66
2022/12/22 10:16:28;;;;;;;1.83;0.50;;;;;;;;;;4972794;28;20445;-66
2022/12/22 10:18:59;;;;;;;2.80;0.60;;;;;;;;;;4973038;28;20561;-66
2022/12/22 10:21:29;;;;;;;;;;;;;;;;;;4972986;28;20066;-66
2022/12/22 10:23:59;;;;;;;3.15;0.60;;;;;;;;;;4972601;28;19930;-65
2022/12/22 10:26:32;;;;;;;2.92;0.60;;;;;;;;;;4989253;28;20061;-66
2022/12/22 10:29:12;;;;;;;3.35;0.70;;;;;;;;;;5001520;28;20068;-66
2022/12/22 10:32:00;;;;;;;2.22;0.50;;;;;;;;;;5031126;28;20057;-66
2022/12/22 10:34:31;;;;;;;4.88;0.45;;;;;;;;;;4998386;28;20077;-66
2022/12/22 10:37:04;;;;;;;1.05;0.40;;;;;;;;;;5030928;28;20057;-66
2022/12/22 10:39:37;;;;;;;1.60;0.70;;;;;;;;;;5015025;28;20080;-66
2022/12/22 10:42:12;;;;;;;2.00;0.50;;;;;;;;;;5012928;28;20067;-66
2022/12/22 10:44:48;;;;;;;7.80;1.92;;;;;;;;;;5070169;28;20044;-66
2022/12/22 10:47:22;;;;;;;1.70;0.60;;;;;;;;;;5071145;28;20055;-66
2022/12/22 10:49:57;;;;;;;2.58;0.50;;;;;;;;;;4990380;28;20436;-66
2022/12/22 10:52:29;;;;;;;3.47;0.47;;;;;;;;;;5054311;28;20048;-65
2022/12/22 10:55:21;;;;;;;1.20;0.60;;;;;;;;;;5070799;28;20072;-65
2022/12/22 10:58:05;;;;;;;3.50;0.60;;;;;;;;;;5070507;28;20044;-66
2022/12/22 11:00:37;;;;;;;1.77;0.60;;;;;;;;;;5070633;28;20056;-66
2022/12/22 11:03:13;;;;;;;1.35;0.55;;;;;;;;;;5083152;28;20064;-66
2022/12/22 11:05:51;;;;;;;2.33;0.75;;;;;;;;;;5075660;28;20179;-66
2022/12/22 11:08:21;;;;;;;1.75;0.50;;;;;;;;;;5057096;28;20063;-65
2022/12/22 11:11:03;;;;;;;0.80;0.40;;;;;;;;;;5057149;28;20526;-66
2022/12/22 11:13:39;;;;;;;1.50;0.57;;;;;;;;;;5040451;28;20056;-65
2022/12/22 11:16:27;;;;;;;3.70;0.55;;;;;;;;;;5056782;28;20048;-65
2022/12/22 11:19:15;;;;;;;3.00;0.70;;;;;;;;;;5090459;28;20086;-66
2022/12/22 11:21:53;;;;;;;1.70;0.60;;;;;;;;;;5073932;28;20559;-66
2022/12/22 11:24:39;;;;;;;2.90;0.73;;;;;;;;;;5090670;28;20377;-65
2022/12/22 11:27:40;;;;;;;1.30;0.50;;;;;;;;;;5090253;28;20059;-65
2022/12/22 11:30:19;;;;;;;3.25;0.50;;;;;;;;;;5090241;28;20047;-65
2022/12/22 11:33:16;;;;;;;0.50;0.40;;;;;;;;;;5090402;28;20055;-65
2022/12/22 11:36:12;;;;;;;1.30;0.52;;;;;;;;;;5091753;28;20176;-65
2022/12/22 11:38:56;;;;;;;1.25;0.40;;;;;;;;;;5041868;28;20108;-66
2022/12/22 11:41:26;;;;;;;1.52;0.40;;;;;;;;;;5090504;28;20496;-66
2022/12/22 11:44:01;;;;;;;4.95;0.45;;;;;;;;;;5089722;28;20408;-66
2022/12/22 11:46:46;;;;;;;1.17;0.40;;;;;;;;;;5090060;28;20056;-66
2022/12/22 11:49:28;;;;;;;1.83;0.60;;;;;;;;;;5089996;28;20551;-66
2022/12/22 11:52:34;;;;;;;1.00;0.40;;;;;;;;;;5073137;28;20059;-66
2022/12/22 11:55:22;;;;;;;1.25;0.40;;;;;;;;;;4996685;28;20052;-65
2022/12/22 11:58:33;;;;;;;23.95;10.95;;;;;;;;;;4996879;28;20045;-65
2022/12/22 12:01:17;;;;;;;3.10;0.98;;;;;;;;;;4916506;29;20539;-66
2022/12/22 12:04:14;;;;;;;8.23;4.70;;;;;;;;;;4932515;29;20214;-65
2022/12/22 12:07:05;;;;;;;3.10;1.83;;;;;;;;;;4932580;29;20100;-65
2022/12/22 12:09:41;;;;;;;1.58;0.55;;;;;;;;;;4932665;29;20055;-65
2022/12/22 12:12:30;;;;;;;1.27;0.30;;;;;;;;;;4901077;29;20405;-64
2022/12/22 12:15:27;;;;;;;0.88;0.30;;;;;;;;;;4932392;29;20063;-65
2022/12/22 12:18:37;;;;;;;2.83;0.80;;;;;;;;;;4932387;29;20382;-65
2022/12/22 12:21:25;;;;;;;2.17;0.80;;;;;;;;;;4885367;29;20059;-65
2022/12/22 12:24:18;;;;;;;2.40;0.50;;;;;;;;;;4932296;29;20401;-65
2022/12/22 12:27:00;;;;;;;1.40;0.50;;;;;;;;;;4916072;29;20059;-65
2022/12/22 12:29:41;;;;;;;6.07;2.53;;;;;;;;;;4932256;29;20083;-65
2022/12/22 12:32:16;;;;;;;3.33;0.43;;;;;;;;;;4992469;28;20062;-65
2022/12/22 12:34:49;;;;;;;1.40;0.70;;;;;;;;;;5009814;28;20564;-65
2022/12/22 12:37:26;;;;;;;1.45;0.93;;;;;;;;;;5068684;28;20052;-65
2022/12/22 12:40:26;;;;;;;2.08;0.50;;;;;;;;;;5073275;28;20079;-65
2022/12/22 12:42:58;;;;;;;0.73;0.35;;;;;;;;;;5091799;28;20044;-65
2022/12/22 12:45:48;;;;;;;1.58;0.50;;;;;;;;;;5069094;28;20048;-66
2022/12/22 12:48:24;;;;;;;0.57;0.20;;;;;;;;;;5069323;28;20056;-66
2022/12/22 12:50:58;;;;;;;1.52;0.40;;;;;;;;;;5069467;28;20045;-65
2022/12/22 12:53:29;;;;;;;0.80;0.30;;;;;;;;;;5069262;28;20699;-66
2022/12/22 12:56:06;;;;;;;0.98;0.30;;;;;;;;;;5032568;28;20563;-65
2022/12/22 12:58:38;;;;;;;1.05;0.52;;;;;;;;;;5049188;28;20547;-65
2022/12/22 13:01:28;;;;;;;0.60;0.32;;;;;;;;;;4999884;28;20056;-65
2022/12/22 13:03:58;;;;;;;1.27;0.30;;;;;;;;;;5049075;28;20053;-65
2022/12/22 13:06:50;;;;;;;2.05;0.82;;;;;;;;;;5048804;28;20080;-65
2022/12/22 13:09:26;;;;;;;3.40;0.75;;;;;;;;;;5035591;28;20412;-65
2022/12/22 13:12:49;;;;;;;0.32;0.20;;;;;;;;;;5052848;28;20044;-65
2022/12/22 13:15:32;;;;;;;1.15;0.50;;;;;;;;;;5019492;28;20055;-64
2022/12/22 13:18:10;;;;;;;0.35;0.28;;;;;;;;;;5035668;28;20064;-65
2022/12/22 13:20:41;;;;;;;1.17;0.30;;;;;;;;;;5052607;28;20056;-65
2022/12/22 13:23:13;;;;;;;1.50;0.32;;;;;;;;;;5030471;28;20123;-65
2022/12/22 13:25:58;;;;;;;0.52;0.45;;;;;;;;;;5072671;28;20056;-64
2022/12/22 13:28:29;;;;;;;1.30;0.47;;;;;;;;;;5072376;28;20057;-65
2022/12/22 13:31:03;;;;;;;0.52;0.22;;;;;;;;;;5072604;28;20048;-64
2022/12/22 13:33:38;;;;;;;1.75;0.85;;;;;;;;;;5083120;28;20419;-65
2022/12/22 13:36:19;;;;;;;0.85;0.30;;;;;;;;;;5094830;28;20052;-65
2022/12/22 13:39:20;;;;;;;2.25;0.73;;;;;;;;;;5094710;28;20391;-65
2022/12/22 13:41:51;;;;;;;1.98;0.60;;;;;;;;;;5094835;28;20404;-65
2022/12/22 13:44:32;;;;;;;0.82;0.40;;;;;;;;;;5075951;28;20055;-65
2022/12/22 13:47:14;;;;;;;1.00;0.50;;;;;;;;;;5072059;28;20056;-65
2022/12/22 13:49:44;;;;;;;1.10;0.30;;;;;;;;;;5072265;28;20052;-65
2022/12/22 13:52:34;;;;;;;0.75;0.20;;;;;;;;;;5072079;28;20056;-64
2022/12/22 13:55:13;;;;;;;0.80;0.20;;;;;;;;;;5038574;28;20064;-64
2022/12/22 13:57:43;;;;;;;0.75;0.32;;;;;;;;;;5072032;28;20048;-64
2022/12/22 14:00:24;;;;;;;0.95;0.52;;;;;;;;;;5051727;28;20432;-64
2022/12/22 14:02:55;;;;;;;5.13;1.55;;;;;;;;;;5019108;28;20080;-64
2022/12/22 14:05:31;;;;;;;0.82;0.52;;;;;;;;;;5051426;28;20553;-65
2022/12/22 14:08:06;;;;;;;0.77;0.40;;;;;;;;;;5071488;28;20052;-64
2022/12/22 14:10:43;;;;;;;3.78;0.30;;;;;;;;;;5038037;28;20500;-65
2022/12/22 14:13:19;;;;;;;0.85;0.40;;;;;;;;;;5071792;28;20076;-65
2022/12/22 14:15:59;;;;;;;0.75;0.47;;;;;;;;;;5071555;28;20524;-65
2022/12/22 14:18:31;;;;;;;2.40;0.32;;;;;;;;;;5021364;28;20052;-65
2022/12/22 14:21:03;;;;;;;1.00;0.30;;;;;;;;;;4989640;28;20052;-65
2022/12/22 14:23:38;;;;;;;2.42;0.60;;;;;;;;;;5071529;28;20523;-65
2022/12/22 14:26:18;;;;;;;0.57;0.32;;;;;;;;;;5071423;28;20114;-65
2022/12/22 14:28:52;;;;;;;0.82;0.60;;;;;;;;;;5071244;28;20591;-65
2022/12/22 14:31:22;;;;;;;0.45;0.30;;;;;;;;;;5071331;28;20503;-66
2022/12/22 14:33:55;;;;;;;0.50;0.20;;;;;;;;;;5037948;28;20049;-65
2022/12/22 14:36:34;;;;;;;0.70;0.50;;;;;;;;;;5071233;28;20040;-65
2022/12/22 14:39:19;;;;;;;1.02;0.65;;;;;;;;;;5047812;28;20048;-65
2022/12/22 14:41:56;;;;;;;0.70;0.40;;;;;;;;;;5074952;28;20052;-65
2022/12/22 14:44:44;;;;;;;2.28;1.48;;;;;;;;;;5093607;28;20044;-65
2022/12/22 14:47:23;;;;;;;4.57;0.40;;;;;;;;;;5093420;28;20040;-65
2022/12/22 14:49:57;;;;;;;0.63;0.30;;;;;;;;;;5091664;28;20056;-65
2022/12/22 14:52:43;;;;;;;1.20;0.40;;;;;;;;;;5093544;28;20055;-65
2022/12/22 14:55:29;;;;;;;0.98;0.32;;;;;;;;;;5058182;28;20070;-66
2022/12/22 14:58:14;;;;;;;1.17;0.10;;;;;;;;;;5093552;28;20040;-65
2022/12/22 15:00:48;;;;;;;0.30;0.30;;;;;;;;;;5093235;28;20055;-65
2022/12/22 15:03:28;;;;;;;0.35;0.20;;;;;;;;;;5074493;28;20059;-65
2022/12/22 15:06:23;;;;;;;0.20;0.13;;;;;;;;;;5093032;28;20495;-66
2022/12/22 15:09:05;;;;;;;0.43;0.30;;;;;;;;;;5091215;28;20436;-65
2022/12/22 15:11:44;;;;;;;0.68;0.32;;;;;;;;;;5074205;28;20408;-65
2022/12/22 15:14:20;;;;;;;0.65;0.40;;;;;;;;;;5092763;28;20040;-65
2022/12/22 15:16:55;;;;;;;0.45;0.30;;;;;;;;;;5093120;28;20043;-66
2022/12/22 15:19:32;;;;;;;1.23;0.85;;;;;;;;;;5074749;28;20055;-65
2022/12/22 15:22:05;;;;;;;0.98;0.20;;;;;;;;;;5091077;28;20411;-65
2022/12/22 15:24:35;;;;;;;2.30;0.30;;;;;;;;;;5073566;28;20056;-65
2022/12/22 15:27:05;;;;;;;0.38;0.28;;;;;;;;;;5073660;28;20064;-64
2022/12/22 15:29:35;;;;;;;1.73;0.30;;;;;;;;;;5092813;28;20522;-65
2022/12/22 15:32:12;;;;;;;1.17;0.30;;;;;;;;;;5092379;28;20048;-65
2022/12/22 15:34:43;;;;;;;0.65;0.10;;;;;;;;;;5090153;28;20527;-65
2022/12/22 15:37:13;;;;;;;0.65;0.17;;;;;;;;;;5090251;28;20063;-65
2022/12/22 15:39:42;;;;;;;0.50;0.50;;;;;;;;;;5056323;28;20063;-65
2022/12/22 15:42:13;;;;;;;0.52;0.32;;;;;;;;;;5090315;28;20052;-64
2022/12/22 15:44:42;;;;;;;0.32;0.22;;;;;;;;;;5090216;28;20107;-65
2022/12/22 15:47:12;;;;;;;0.85;0.30;;;;;;;;;;5073728;28;20060;-64
2022/12/22 15:49:42;;;;;;;0.25;0.20;;;;;;;;;;5056393;28;20056;-64
2022/12/22 15:52:13;;;;;;;0.40;0.10;;;;;;;;;;5090063;28;20156;-64
2022/12/22 15:54:43;;;;;;;2.00;0.32;;;;;;;;;;5090142;28;20408;-64
2022/12/22 15:57:14;;;;;;;0.20;0.20;;;;;;;;;;5090158;28;20059;-65
2022/12/22 15:59:44;;;;;;;0.32;0.20;;;;;;;;;;5073354;28;20055;-64
2022/12/22 16:02:14;;;;;;;0.82;0.38;;;;;;;;;;5089952;28;20415;-63
2022/12/22 16:04:44;;;;;;;0.82;0.40;;;;;;;;;;5057215;28;20063;-64
2022/12/22 16:07:14;;;;;;;2.92;0.30;;;;;;;;;;5074114;28;20060;-64
2022/12/22 16:09:47;;;;;;;0.60;0.28;;;;;;;;;;5092162;28;20032;-64
2022/12/22 16:12:18;;;;;;;0.38;0.13;;;;;;;;;;5074088;28;20055;-65
2022/12/22 16:14:53;;;;;;;0.35;0.22;;;;;;;;;;5056542;28;20048;-65
2022/12/22 16:17:25;;;;;;;0.40;0.30;;;;;;;;;;5073662;28;20399;-65
2022/12/22 16:19:55;;;;;;;0.32;0.10;;;;;;;;;;5073127;28;20055;-65
2022/12/22 16:22:32;;;;;;;0.43;0.20;;;;;;;;;;5056238;28;20522;-66
2022/12/22 16:25:07;;;;;;;0.43;0.30;;;;;;;;;;5072886;28;20051;-65
2022/12/22 16:27:37;;;;;;;0.50;0.20;;;;;;;;;;5092219;28;20056;-65
2022/12/22 16:30:19;;;;;;;1.63;0.40;;;;;;;;;;5092083;28;20040;-65
2022/12/22 16:32:51;;;;;;;3.45;0.50;;;;;;;;;;5092063;28;20036;-65
2022/12/22 16:35:23;;;;;;;3.53;0.32;;;;;;;;;;5091845;28;20040;-65
2022/12/22 16:37:56;;;;;;;0.63;0.20;;;;;;;;;;5092054;28;20066;-65
2022/12/22 16:40:31;;;;;;;0.40;0.30;;;;;;;;;;5089633;28;20052;-65
2022/12/22 16:43:37;;;;;;;1.73;0.35;;;;;;;;;;5091609;28;20449;-65
2022/12/22 16:46:23;;;;;;;1.23;0.60;;;;;;;;;;5094319;28;20380;-65
2022/12/22 16:48:56;;;;;;;1.13;0.40;;;;;;;;;;5095996;28;20051;-64
2022/12/22 16:51:33;;;;;;;1.77;0.43;;;;;;;;;;5095901;28;20396;-64
2022/12/22 16:54:03;;;;;;;1.80;0.68;;;;;;;;;;5095623;28;20059;-64
2022/12/22 16:56:33;;;;;;;0.38;0.30;;;;;;;;;;5093784;28;20055;-64
2022/12/22 16:59:03;;;;;;;3.38;0.60;;;;;;;;;;5076713;28;20048;-64
2022/12/22 17:01:40;;;;;;;0.82;0.63;;;;;;;;;;5095866;28;20098;-64
2022/12/22 17:04:14;;;;;;;2.92;0.40;;;;;;;;;;5095746;28;20395;-65
2022/12/22 17:06:45;;;;;;;0.90;0.47;;;;;;;;;;5095469;28;20047;-65
2022/12/22 17:09:23;;;;;;;0.63;0.60;;;;;;;;;;5059766;28;20380;-65
2022/12/22 17:11:54;;;;;;;0.75;0.28;;;;;;;;;;5095430;28;20040;-65
2022/12/22 17:14:29;;;;;;;0.50;0.20;;;;;;;;;;5095545;28;20043;-65
2022/12/22 17:16:59;;;;;;;0.47;0.20;;;;;;;;;;5095371;28;20044;-64
2022/12/22 17:19:29;;;;;;;0.40;0.17;;;;;;;;;;5095453;28;20044;-64
2022/12/22 17:22:00;;;;;;;1.33;0.40;;;;;;;;;;5059669;28;20407;-64
2022/12/22 17:24:29;;;;;;;0.10;0.10;;;;;;;;;;5076276;28;20067;-64
2022/12/22 17:27:04;;;;;;;0.80;0.40;;;;;;;;;;5059581;28;20059;-64
2022/12/22 17:29:35;;;;;;;0.45;0.13;;;;;;;;;;5059618;28;20056;-64
2022/12/22 17:32:06;;;;;;;0.30;0.22;;;;;;;;;;5093223;28;20058;-64
2022/12/22 17:34:36;;;;;;;0.30;0.20;;;;;;;;;;5094997;28;20044;-65
2022/12/22 17:37:19;;;;;;;0.55;0.30;;;;;;;;;;5076085;28;20052;-65
2022/12/22 17:39:58;;;;;;;7.32;0.22;;;;;;;;;;5094815;28;20043;-65
2022/12/22 17:42:30;;;;;;;0.90;0.20;;;;;;;;;;5094912;28;20056;-65
2022/12/22 17:45:00;;;;;;;0.47;0.40;;;;;;;;;;5095196;28;20510;-65
2022/12/22 17:47:30;;;;;;;3.55;0.20;;;;;;;;;;5092818;28;20048;-65
2022/12/22 17:50:15;;;;;;;6.80;0.30;;;;;;;;;;5094802;28;20051;-65
2022/12/22 17:52:45;;;;;;;0.30;0.20;;;;;;;;;;5094776;28;20044;-65
2022/12/22 17:55:24;;;;;;;2.00;0.25;;;;;;;;;;5059013;28;20052;-64
2022/12/22 17:58:17;;;;;;;0.20;0.20;;;;;;;;;;5075884;28;20052;-64
2022/12/22 18:00:47;;;;;;;0.40;0.28;;;;;;;;;;5094258;28;20044;-65
2022/12/22 18:03:17;;;;;;;1.85;0.30;;;;;;;;;;5092033;28;20052;-65
2022/12/22 18:05:48;;;;;;;2.90;0.35;;;;;;;;;;5075004;28;20055;-64
2022/12/22 18:08:20;;;;;;;0.17;0.15;;;;;;;;;;5026648;28;20052;-64
2022/12/22 18:10:50;;;;;;;7.28;0.40;;;;;;;;;;5091988;28;20055;-65
2022/12/22 18:13:23;;;;;;;0.88;0.28;;;;;;;;;;5092028;28;20055;-65
2022/12/22 18:15:54;;;;;;;0.28;0.20;;;;;;;;;;5091885;28;20075;-65
2022/12/22 18:18:26;;;;;;;0.30;0.30;;;;;;;;;;5092082;28;20055;-65
2022/12/22 18:20:56;;;;;;;4.60;0.30;;;;;;;;;;5074940;28;20417;-65
2022/12/22 18:23:36;;;;;;;0.80;0.30;;;;;;;;;;5025025;28;20040;-65
2022/12/22 18:26:31;;;;;;;0.40;0.20;;;;;;;;;;5034362;28;20048;-65
2022/12/22 18:29:02;;;;;;;3.22;0.43;;;;;;;;;;5051470;28;20489;-64
2022/12/22 18:31:32;;;;;;;2.55;0.20;;;;;;;;;;5051301;28;20049;-65
2022/12/22 18:34:02;;;;;;;5.22;0.43;;;;;;;;;;5051296;28;20080;-65
2022/12/22 18:36:32;;;;;;;9.68;0.38;;;;;;;;;;5051334;28;20053;-65
2022/12/22 18:39:03;;;;;;;7.60;0.38;;;;;;;;;;5051385;28;20041;-65
2022/12/22 18:41:37;;;;;;;0.20;0.20;;;;;;;;;;5066857;28;20059;-65
2022/12/22 18:44:15;;;;;;;6.80;0.38;;;;;;;;;;5071302;28;20057;-65
2022/12/22 18:46:47;;;;;;;4.90;0.35;;;;;;;;;;5031008;28;20053;-65
2022/12/22 18:49:17;;;;;;;4.68;0.30;;;;;;;;;;5031208;28;20158;-65
2022/12/22 18:51:47;;;;;;;0.65;0.20;;;;;;;;;;5031023;28;20053;-65
2022/12/22 18:54:25;;;;;;;6.10;0.35;;;;;;;;;;5031067;28;20054;-64
2022/12/22 18:56:55;;;;;;;0.35;0.20;;;;;;;;;;5040784;28;20072;-64
2022/12/22 18:59:27;;;;;;;0.82;0.40;;;;;;;;;;5038648;28;20056;-64
2022/12/22 19:02:03;;;;;;;1.48;0.30;;;;;;;;;;5070975;28;20048;-64
2022/12/22 19:04:33;;;;;;;3.72;0.30;;;;;;;;;;5070607;28;20053;-64
2022/12/22 19:07:03;;;;;;;4.32;0.25;;;;;;;;;;5036805;28;20057;-64
2022/12/22 19:09:32;;;;;;;2.35;0.30;;;;;;;;;;5070705;28;20048;-63
2022/12/22 19:12:03;;;;;;;1.05;0.20;;;;;;;;;;5070696;28;20159;-64